sensor_id;sensor_type;location;lat;lon;timestamp;P1;durP1;ratioP1;P2;durP2;ratioP2
63012;SDS011;62113;45.624;11.700;2023-12-28T00:00:42;71.10;;;39.33;;
63012;SDS011;62113;45.624;11.700;2023-12-28T00:03:07;66.00;;;36.47;;
63012;SDS011;62113;45.624;11.700;2023-12-28T00:05:33;70.68;;;36.75;;
63012;SDS011;62113;45.624;11.700;2023-12-28T00:07:58;66.22;;;36.50;;
63012;SDS011;62113;45.624;11.700;2023-12-28T00:10:25;73.35;;;36.33;;
63012;SDS011;62113;45.624;11.700;2023-12-28T00:12:51;61.92;;;36.13;;
63012;SDS011;62113;45.624;11.700;2023-12-28T00:15:17;66.13;;;36.85;;
63012;SDS011;62113;45.624;11.700;2023-12-28T00:17:43;61.88;;;35.03;;
63012;SDS011;62113;45.624;11.700;2023-12-28T00:20:09;64.28;;;35.67;;
63012;SDS011;62113;45.624;11.700;2023-12-28T00:22:35;63.92;;;35.08;;
63012;SDS011;62113;45.624;11.700;2023-12-28T00:25:02;70.95;;;35.53;;
63012;SDS011;62113;45.624;11.700;2023-12-28T00:27:31;68.95;;;37.15;;
63012;SDS011;62113;45.624;11.700;2023-12-28T00:29:59;62.83;;;36.30;;
63012;SDS011;62113;45.624;11.700;2023-12-28T00:32:25;59.80;;;36.20;;
63012;SDS011;62113;45.624;11.700;2023-12-28T00:34:50;58.28;;;35.08;;
63012;SDS011;62113;45.624;11.700;2023-12-28T00:37:16;63.22;;;35.38;;
63012;SDS011;62113;45.624;11.700;2023-12-28T00:39:42;63.88;;;36.85;;
63012;SDS011;62113;45.624;11.700;2023-12-28T00:42:08;63.35;;;36.25;;
63012;SDS011;62113;45.624;11.700;2023-12-28T00:44:33;75.25;;;35.97;;
63012;SDS011;62113;45.624;11.700;2023-12-28T00:46:59;74.13;;;37.13;;
63012;SDS011;62113;45.624;11.700;2023-12-28T00:49:24;68.50;;;36.33;;
63012;SDS011;62113;45.624;11.700;2023-12-28T00:51:50;61.80;;;35.55;;
63012;SDS011;62113;45.624;11.700;2023-12-28T00:54:16;60.38;;;35.95;;
63012;SDS011;62113;45.624;11.700;2023-12-28T00:56:41;65.20;;;34.55;;
63012;SDS011;62113;45.624;11.700;2023-12-28T00:59:07;64.80;;;35.80;;
63012;SDS011;62113;45.624;11.700;2023-12-28T01:01:32;64.80;;;36.08;;
63012;SDS011;62113;45.624;11.700;2023-12-28T01:03:58;63.45;;;35.75;;
63012;SDS011;62113;45.624;11.700;2023-12-28T01:06:23;59.47;;;33.75;;
63012;SDS011;62113;45.624;11.700;2023-12-28T01:08:54;63.33;;;33.90;;
63012;SDS011;62113;45.624;11.700;2023-12-28T01:11:19;59.33;;;33.03;;
63012;SDS011;62113;45.624;11.700;2023-12-28T01:13:45;59.00;;;34.63;;
63012;SDS011;62113;45.624;11.700;2023-12-28T01:16:14;59.63;;;35.70;;
63012;SDS011;62113;45.624;11.700;2023-12-28T01:18:39;63.33;;;34.80;;
63012;SDS011;62113;45.624;11.700;2023-12-28T01:21:05;65.25;;;35.58;;
63012;SDS011;62113;45.624;11.700;2023-12-28T01:23:31;61.30;;;35.65;;
63012;SDS011;62113;45.624;11.700;2023-12-28T01:25:57;66.47;;;35.83;;
63012;SDS011;62113;45.624;11.700;2023-12-28T01:28:22;56.80;;;34.75;;
63012;SDS011;62113;45.624;11.700;2023-12-28T01:30:48;57.22;;;35.03;;
63012;SDS011;62113;45.624;11.700;2023-12-28T01:33:14;60.92;;;35.05;;
63012;SDS011;62113;45.624;11.700;2023-12-28T01:35:40;58.40;;;33.92;;
63012;SDS011;62113;45.624;11.700;2023-12-28T01:38:06;66.60;;;35.47;;
63012;SDS011;62113;45.624;11.700;2023-12-28T01:40:32;59.88;;;32.72;;
63012;SDS011;62113;45.624;11.700;2023-12-28T01:42:57;61.67;;;36.25;;
63012;SDS011;62113;45.624;11.700;2023-12-28T01:45:23;72.53;;;35.00;;
63012;SDS011;62113;45.624;11.700;2023-12-28T01:47:49;66.15;;;33.38;;
63012;SDS011;62113;45.624;11.700;2023-12-28T01:50:16;63.50;;;34.70;;
63012;SDS011;62113;45.624;11.700;2023-12-28T01:52:42;60.57;;;35.77;;
63012;SDS011;62113;45.624;11.700;2023-12-28T01:55:08;66.57;;;34.42;;
63012;SDS011;62113;45.624;11.700;2023-12-28T01:57:34;65.63;;;34.87;;
63012;SDS011;62113;45.624;11.700;2023-12-28T02:00:00;63.42;;;34.78;;
63012;SDS011;62113;45.624;11.700;2023-12-28T02:02:28;57.45;;;32.83;;
63012;SDS011;62113;45.624;11.700;2023-12-28T02:04:55;60.67;;;33.95;;
63012;SDS011;62113;45.624;11.700;2023-12-28T02:07:21;56.92;;;32.63;;
63012;SDS011;62113;45.624;11.700;2023-12-28T02:09:47;56.60;;;34.63;;
63012;SDS011;62113;45.624;11.700;2023-12-28T02:12:13;55.92;;;34.80;;
63012;SDS011;62113;45.624;11.700;2023-12-28T02:14:38;58.80;;;33.90;;
63012;SDS011;62113;45.624;11.700;2023-12-28T02:17:06;57.20;;;32.10;;
63012;SDS011;62113;45.624;11.700;2023-12-28T02:19:47;58.05;;;34.22;;
63012;SDS011;62113;45.624;11.700;2023-12-28T02:22:16;61.67;;;35.58;;
63012;SDS011;62113;45.624;11.700;2023-12-28T02:25:15;56.58;;;33.78;;
63012;SDS011;62113;45.624;11.700;2023-12-28T02:27:36;61.45;;;35.03;;
63012;SDS011;62113;45.624;11.700;2023-12-28T02:30:05;58.05;;;35.22;;
63012;SDS011;62113;45.624;11.700;2023-12-28T02:32:35;63.10;;;33.47;;
63012;SDS011;62113;45.624;11.700;2023-12-28T02:37:57;60.53;;;33.40;;
63012;SDS011;62113;45.624;11.700;2023-12-28T02:40:27;58.67;;;34.55;;
63012;SDS011;62113;45.624;11.700;2023-12-28T02:42:53;62.15;;;35.42;;
63012;SDS011;62113;45.624;11.700;2023-12-28T02:45:18;70.57;;;34.85;;
63012;SDS011;62113;45.624;11.700;2023-12-28T02:47:45;57.92;;;34.58;;
63012;SDS011;62113;45.624;11.700;2023-12-28T02:50:10;67.60;;;34.67;;
63012;SDS011;62113;45.624;11.700;2023-12-28T02:52:36;57.25;;;33.90;;
63012;SDS011;62113;45.624;11.700;2023-12-28T02:55:02;60.30;;;34.10;;
63012;SDS011;62113;45.624;11.700;2023-12-28T02:57:28;64.38;;;35.50;;
63012;SDS011;62113;45.624;11.700;2023-12-28T02:59:54;52.55;;;32.97;;
63012;SDS011;62113;45.624;11.700;2023-12-28T03:02:21;57.33;;;30.95;;
63012;SDS011;62113;45.624;11.700;2023-12-28T03:04:47;62.78;;;32.25;;
63012;SDS011;62113;45.624;11.700;2023-12-28T03:07:13;60.67;;;33.95;;
63012;SDS011;62113;45.624;11.700;2023-12-28T03:09:38;60.70;;;35.63;;
63012;SDS011;62113;45.624;11.700;2023-12-28T03:12:04;62.67;;;34.15;;
63012;SDS011;62113;45.624;11.700;2023-12-28T03:14:31;69.07;;;35.15;;
63012;SDS011;62113;45.624;11.700;2023-12-28T03:16:57;62.38;;;35.67;;
63012;SDS011;62113;45.624;11.700;2023-12-28T03:19:22;51.75;;;31.65;;
63012;SDS011;62113;45.624;11.700;2023-12-28T03:21:48;59.13;;;34.42;;
63012;SDS011;62113;45.624;11.700;2023-12-28T03:24:14;62.80;;;35.00;;
63012;SDS011;62113;45.624;11.700;2023-12-28T03:26:39;55.97;;;33.53;;
63012;SDS011;62113;45.624;11.700;2023-12-28T03:29:05;58.60;;;33.20;;
63012;SDS011;62113;45.624;11.700;2023-12-28T03:31:31;64.55;;;34.33;;
63012;SDS011;62113;45.624;11.700;2023-12-28T03:33:57;58.45;;;33.58;;
63012;SDS011;62113;45.624;11.700;2023-12-28T03:36:23;53.33;;;31.20;;
63012;SDS011;62113;45.624;11.700;2023-12-28T03:38:49;57.75;;;33.88;;
63012;SDS011;62113;45.624;11.700;2023-12-28T03:41:18;55.83;;;33.72;;
63012;SDS011;62113;45.624;11.700;2023-12-28T03:43:44;56.85;;;33.33;;
63012;SDS011;62113;45.624;11.700;2023-12-28T03:46:10;65.78;;;34.75;;
63012;SDS011;62113;45.624;11.700;2023-12-28T03:48:36;57.08;;;32.85;;
63012;SDS011;62113;45.624;11.700;2023-12-28T03:51:02;64.00;;;35.05;;
63012;SDS011;62113;45.624;11.700;2023-12-28T03:53:28;61.50;;;33.90;;
63012;SDS011;62113;45.624;11.700;2023-12-28T03:55:54;55.65;;;32.55;;
63012;SDS011;62113;45.624;11.700;2023-12-28T03:58:19;43.95;;;28.63;;
63012;SDS011;62113;45.624;11.700;2023-12-28T04:00:45;58.88;;;32.92;;
63012;SDS011;62113;45.624;11.700;2023-12-28T04:03:10;61.78;;;32.45;;
63012;SDS011;62113;45.624;11.700;2023-12-28T04:05:36;66.50;;;34.25;;
63012;SDS011;62113;45.624;11.700;2023-12-28T04:08:02;63.20;;;34.38;;
63012;SDS011;62113;45.624;11.700;2023-12-28T04:10:29;63.70;;;32.25;;
63012;SDS011;62113;45.624;11.700;2023-12-28T04:12:57;63.38;;;33.92;;
63012;SDS011;62113;45.624;11.700;2023-12-28T04:15:24;68.47;;;35.65;;
63012;SDS011;62113;45.624;11.700;2023-12-28T04:17:50;59.28;;;34.85;;
63012;SDS011;62113;45.624;11.700;2023-12-28T04:20:16;55.33;;;31.38;;
63012;SDS011;62113;45.624;11.700;2023-12-28T04:22:42;55.90;;;33.65;;
63012;SDS011;62113;45.624;11.700;2023-12-28T04:25:08;64.38;;;34.58;;
63012;SDS011;62113;45.624;11.700;2023-12-28T04:27:35;54.85;;;31.85;;
63012;SDS011;62113;45.624;11.700;2023-12-28T04:30:00;62.08;;;32.55;;
63012;SDS011;62113;45.624;11.700;2023-12-28T04:32:26;58.78;;;32.72;;
63012;SDS011;62113;45.624;11.700;2023-12-28T04:34:52;55.78;;;32.65;;
63012;SDS011;62113;45.624;11.700;2023-12-28T04:37:19;56.92;;;33.22;;
63012;SDS011;62113;45.624;11.700;2023-12-28T04:39:45;54.65;;;32.92;;
63012;SDS011;62113;45.624;11.700;2023-12-28T04:42:10;61.75;;;32.80;;
63012;SDS011;62113;45.624;11.700;2023-12-28T04:44:39;65.25;;;32.47;;
63012;SDS011;62113;45.624;11.700;2023-12-28T04:47:05;52.25;;;31.40;;
63012;SDS011;62113;45.624;11.700;2023-12-28T04:49:31;54.40;;;32.85;;
63012;SDS011;62113;45.624;11.700;2023-12-28T04:51:57;50.38;;;31.45;;
63012;SDS011;62113;45.624;11.700;2023-12-28T04:54:22;51.83;;;31.85;;
63012;SDS011;62113;45.624;11.700;2023-12-28T04:56:48;51.55;;;29.40;;
63012;SDS011;62113;45.624;11.700;2023-12-28T04:59:14;55.58;;;29.67;;
63012;SDS011;62113;45.624;11.700;2023-12-28T05:01:43;52.30;;;31.70;;
63012;SDS011;62113;45.624;11.700;2023-12-28T05:04:09;52.80;;;30.75;;
63012;SDS011;62113;45.624;11.700;2023-12-28T05:06:35;57.60;;;32.42;;
63012;SDS011;62113;45.624;11.700;2023-12-28T05:09:01;55.33;;;32.80;;
63012;SDS011;62113;45.624;11.700;2023-12-28T05:11:27;56.72;;;32.47;;
63012;SDS011;62113;45.624;11.700;2023-12-28T05:13:53;55.25;;;32.05;;
63012;SDS011;62113;45.624;11.700;2023-12-28T05:16:18;58.10;;;33.60;;
63012;SDS011;62113;45.624;11.700;2023-12-28T05:18:45;59.47;;;33.20;;
63012;SDS011;62113;45.624;11.700;2023-12-28T05:21:13;52.28;;;31.80;;
63012;SDS011;62113;45.624;11.700;2023-12-28T05:23:39;62.40;;;32.22;;
63012;SDS011;62113;45.624;11.700;2023-12-28T05:26:05;57.60;;;34.28;;
63012;SDS011;62113;45.624;11.700;2023-12-28T05:28:31;56.90;;;33.10;;
63012;SDS011;62113;45.624;11.700;2023-12-28T05:30:57;62.67;;;31.70;;
63012;SDS011;62113;45.624;11.700;2023-12-28T05:33:26;62.17;;;34.20;;
63012;SDS011;62113;45.624;11.700;2023-12-28T05:35:51;61.55;;;34.72;;
63012;SDS011;62113;45.624;11.700;2023-12-28T05:38:17;58.90;;;32.53;;
63012;SDS011;62113;45.624;11.700;2023-12-28T05:40:43;64.30;;;32.53;;
63012;SDS011;62113;45.624;11.700;2023-12-28T05:43:12;53.65;;;33.47;;
63012;SDS011;62113;45.624;11.700;2023-12-28T05:45:37;57.08;;;31.80;;
63012;SDS011;62113;45.624;11.700;2023-12-28T05:48:03;60.63;;;33.35;;
63012;SDS011;62113;45.624;11.700;2023-12-28T05:50:29;58.55;;;32.15;;
63012;SDS011;62113;45.624;11.700;2023-12-28T05:52:54;51.92;;;33.53;;
63012;SDS011;62113;45.624;11.700;2023-12-28T05:55:20;57.28;;;32.90;;
63012;SDS011;62113;45.624;11.700;2023-12-28T05:57:46;53.85;;;32.25;;
63012;SDS011;62113;45.624;11.700;2023-12-28T06:00:12;56.83;;;32.00;;
63012;SDS011;62113;45.624;11.700;2023-12-28T06:02:39;57.67;;;33.13;;
63012;SDS011;62113;45.624;11.700;2023-12-28T06:05:05;56.08;;;32.53;;
63012;SDS011;62113;45.624;11.700;2023-12-28T06:07:31;55.30;;;32.70;;
63012;SDS011;62113;45.624;11.700;2023-12-28T06:09:57;56.13;;;32.00;;
63012;SDS011;62113;45.624;11.700;2023-12-28T06:12:22;53.72;;;30.95;;
63012;SDS011;62113;45.624;11.700;2023-12-28T06:14:48;62.63;;;34.88;;
63012;SDS011;62113;45.624;11.700;2023-12-28T06:17:14;56.35;;;34.97;;
63012;SDS011;62113;45.624;11.700;2023-12-28T06:19:40;63.58;;;36.90;;
63012;SDS011;62113;45.624;11.700;2023-12-28T06:22:06;63.03;;;35.95;;
63012;SDS011;62113;45.624;11.700;2023-12-28T06:24:32;59.22;;;33.15;;
63012;SDS011;62113;45.624;11.700;2023-12-28T06:26:57;58.65;;;33.45;;
63012;SDS011;62113;45.624;11.700;2023-12-28T06:29:23;61.38;;;34.22;;
63012;SDS011;62113;45.624;11.700;2023-12-28T06:31:48;53.03;;;30.52;;
63012;SDS011;62113;45.624;11.700;2023-12-28T06:34:14;56.35;;;30.63;;
63012;SDS011;62113;45.624;11.700;2023-12-28T06:36:40;71.28;;;33.63;;
63012;SDS011;62113;45.624;11.700;2023-12-28T06:39:06;55.80;;;31.97;;
63012;SDS011;62113;45.624;11.700;2023-12-28T06:41:31;53.90;;;30.92;;
63012;SDS011;62113;45.624;11.700;2023-12-28T06:43:57;53.40;;;30.30;;
63012;SDS011;62113;45.624;11.700;2023-12-28T06:46:23;51.85;;;30.65;;
63012;SDS011;62113;45.624;11.700;2023-12-28T06:48:48;52.55;;;28.67;;
63012;SDS011;62113;45.624;11.700;2023-12-28T06:51:17;57.38;;;29.67;;
63012;SDS011;62113;45.624;11.700;2023-12-28T06:53:44;55.05;;;30.75;;
63012;SDS011;62113;45.624;11.700;2023-12-28T06:56:09;55.33;;;30.88;;
63012;SDS011;62113;45.624;11.700;2023-12-28T06:58:35;51.45;;;29.95;;
63012;SDS011;62113;45.624;11.700;2023-12-28T07:01:03;48.95;;;28.70;;
63012;SDS011;62113;45.624;11.700;2023-12-28T07:03:29;49.17;;;29.48;;
63012;SDS011;62113;45.624;11.700;2023-12-28T07:05:57;51.95;;;30.48;;
63012;SDS011;62113;45.624;11.700;2023-12-28T07:08:26;50.88;;;29.65;;
63012;SDS011;62113;45.624;11.700;2023-12-28T07:10:52;58.10;;;30.90;;
63012;SDS011;62113;45.624;11.700;2023-12-28T07:13:18;62.40;;;31.27;;
63012;SDS011;62113;45.624;11.700;2023-12-28T07:15:43;65.13;;;31.55;;
63012;SDS011;62113;45.624;11.700;2023-12-28T07:18:09;84.30;;;33.60;;
63012;SDS011;62113;45.624;11.700;2023-12-28T07:20:34;56.58;;;31.70;;
63012;SDS011;62113;45.624;11.700;2023-12-28T07:23:00;55.00;;;30.30;;
63012;SDS011;62113;45.624;11.700;2023-12-28T07:25:26;58.33;;;32.08;;
63012;SDS011;62113;45.624;11.700;2023-12-28T07:27:51;51.08;;;29.52;;
63012;SDS011;62113;45.624;11.700;2023-12-28T07:30:17;64.38;;;31.92;;
63012;SDS011;62113;45.624;11.700;2023-12-28T07:32:43;54.17;;;31.17;;
63012;SDS011;62113;45.624;11.700;2023-12-28T07:37:35;71.83;;;31.00;;
63012;SDS011;62113;45.624;11.700;2023-12-28T07:40:01;57.67;;;32.17;;
63012;SDS011;62113;45.624;11.700;2023-12-28T07:42:28;62.03;;;30.77;;
63012;SDS011;62113;45.624;11.700;2023-12-28T07:44:54;60.95;;;33.10;;
63012;SDS011;62113;45.624;11.700;2023-12-28T07:47:19;53.92;;;31.83;;
63012;SDS011;62113;45.624;11.700;2023-12-28T07:49:45;54.50;;;31.33;;
63012;SDS011;62113;45.624;11.700;2023-12-28T07:52:11;59.92;;;32.78;;
63012;SDS011;62113;45.624;11.700;2023-12-28T07:54:36;61.13;;;31.30;;
63012;SDS011;62113;45.624;11.700;2023-12-28T07:57:02;59.97;;;31.73;;
63012;SDS011;62113;45.624;11.700;2023-12-28T07:59:28;61.63;;;32.83;;
63012;SDS011;62113;45.624;11.700;2023-12-28T08:01:53;60.78;;;31.63;;
63012;SDS011;62113;45.624;11.700;2023-12-28T08:04:20;52.08;;;31.23;;
63012;SDS011;62113;45.624;11.700;2023-12-28T08:06:46;63.45;;;31.70;;
63012;SDS011;62113;45.624;11.700;2023-12-28T08:09:11;64.78;;;33.50;;
63012;SDS011;62113;45.624;11.700;2023-12-28T08:11:37;56.80;;;31.92;;
63012;SDS011;62113;45.624;11.700;2023-12-28T08:14:03;66.95;;;31.50;;
63012;SDS011;62113;45.624;11.700;2023-12-28T08:16:28;54.55;;;31.35;;
63012;SDS011;62113;45.624;11.700;2023-12-28T08:18:54;57.00;;;32.38;;
63012;SDS011;62113;45.624;11.700;2023-12-28T08:21:20;60.75;;;32.10;;
63012;SDS011;62113;45.624;11.700;2023-12-28T08:23:45;56.38;;;30.63;;
63012;SDS011;62113;45.624;11.700;2023-12-28T08:26:11;55.47;;;31.70;;
63012;SDS011;62113;45.624;11.700;2023-12-28T08:28:36;57.03;;;30.42;;
63012;SDS011;62113;45.624;11.700;2023-12-28T08:31:02;58.33;;;32.05;;
63012;SDS011;62113;45.624;11.700;2023-12-28T08:33:28;55.87;;;31.23;;
63012;SDS011;62113;45.624;11.700;2023-12-28T08:35:54;54.35;;;31.80;;
63012;SDS011;62113;45.624;11.700;2023-12-28T08:38:19;55.22;;;30.85;;
63012;SDS011;62113;45.624;11.700;2023-12-28T08:40:45;56.17;;;31.35;;
63012;SDS011;62113;45.624;11.700;2023-12-28T08:43:11;61.63;;;32.40;;
63012;SDS011;62113;45.624;11.700;2023-12-28T08:45:36;66.85;;;33.55;;
63012;SDS011;62113;45.624;11.700;2023-12-28T08:48:02;56.90;;;31.63;;
63012;SDS011;62113;45.624;11.700;2023-12-28T08:50:28;52.90;;;29.83;;
63012;SDS011;62113;45.624;11.700;2023-12-28T08:52:54;58.85;;;33.33;;
63012;SDS011;62113;45.624;11.700;2023-12-28T08:55:21;54.22;;;30.30;;
63012;SDS011;62113;45.624;11.700;2023-12-28T08:57:47;65.13;;;32.83;;
63012;SDS011;62113;45.624;11.700;2023-12-28T09:00:13;57.97;;;33.45;;
63012;SDS011;62113;45.624;11.700;2023-12-28T09:02:40;51.30;;;29.88;;
63012;SDS011;62113;45.624;11.700;2023-12-28T09:05:06;52.77;;;28.90;;
63012;SDS011;62113;45.624;11.700;2023-12-28T09:07:32;47.97;;;27.93;;
63012;SDS011;62113;45.624;11.700;2023-12-28T09:09:57;51.25;;;28.88;;
63012;SDS011;62113;45.624;11.700;2023-12-28T09:12:23;42.97;;;26.38;;
63012;SDS011;62113;45.624;11.700;2023-12-28T09:14:49;46.03;;;26.38;;
63012;SDS011;62113;45.624;11.700;2023-12-28T09:17:18;46.15;;;24.02;;
63012;SDS011;62113;45.624;11.700;2023-12-28T09:19:47;42.20;;;22.65;;
63012;SDS011;62113;45.624;11.700;2023-12-28T09:22:12;43.22;;;24.75;;
63012;SDS011;62113;45.624;11.700;2023-12-28T09:24:38;38.42;;;20.17;;
63012;SDS011;62113;45.624;11.700;2023-12-28T09:27:04;38.35;;;20.35;;
63012;SDS011;62113;45.624;11.700;2023-12-28T09:29:30;37.97;;;20.23;;
63012;SDS011;62113;45.624;11.700;2023-12-28T09:31:56;31.30;;;18.83;;
63012;SDS011;62113;45.624;11.700;2023-12-28T09:34:22;30.40;;;18.30;;
63012;SDS011;62113;45.624;11.700;2023-12-28T09:36:47;31.63;;;17.92;;
63012;SDS011;62113;45.624;11.700;2023-12-28T09:39:13;26.70;;;16.83;;
63012;SDS011;62113;45.624;11.700;2023-12-28T09:41:39;30.48;;;16.33;;
63012;SDS011;62113;45.624;11.700;2023-12-28T09:44:14;27.88;;;16.65;;
63012;SDS011;62113;45.624;11.700;2023-12-28T09:46:43;24.05;;;14.48;;
63012;SDS011;62113;45.624;11.700;2023-12-28T09:49:11;27.80;;;15.00;;
63012;SDS011;62113;45.624;11.700;2023-12-28T09:51:36;25.65;;;14.15;;
63012;SDS011;62113;45.624;11.700;2023-12-28T09:54:03;22.63;;;13.80;;
63012;SDS011;62113;45.624;11.700;2023-12-28T09:56:29;22.35;;;13.45;;
63012;SDS011;62113;45.624;11.700;2023-12-28T09:58:57;26.48;;;14.15;;
63012;SDS011;62113;45.624;11.700;2023-12-28T10:01:23;25.02;;;14.43;;
63012;SDS011;62113;45.624;11.700;2023-12-28T10:03:49;24.77;;;15.27;;
63012;SDS011;62113;45.624;11.700;2023-12-28T10:06:15;26.30;;;15.27;;
63012;SDS011;62113;45.624;11.700;2023-12-28T10:08:44;29.03;;;16.53;;
63012;SDS011;62113;45.624;11.700;2023-12-28T10:11:12;29.65;;;17.38;;
63012;SDS011;62113;45.624;11.700;2023-12-28T10:13:42;33.55;;;17.98;;
63012;SDS011;62113;45.624;11.700;2023-12-28T10:16:09;35.17;;;18.05;;
63012;SDS011;62113;45.624;11.700;2023-12-28T10:18:36;31.73;;;19.35;;
63012;SDS011;62113;45.624;11.700;2023-12-28T10:21:01;32.22;;;16.67;;
63012;SDS011;62113;45.624;11.700;2023-12-28T10:23:27;31.83;;;17.00;;
63012;SDS011;62113;45.624;11.700;2023-12-28T10:25:55;29.13;;;16.42;;
63012;SDS011;62113;45.624;11.700;2023-12-28T10:28:21;29.38;;;17.63;;
63012;SDS011;62113;45.624;11.700;2023-12-28T10:30:48;29.25;;;17.88;;
63012;SDS011;62113;45.624;11.700;2023-12-28T10:33:20;28.02;;;17.60;;
63012;SDS011;62113;45.624;11.700;2023-12-28T10:35:45;45.70;;;17.23;;
63012;SDS011;62113;45.624;11.700;2023-12-28T10:38:11;32.00;;;16.75;;
63012;SDS011;62113;45.624;11.700;2023-12-28T10:40:41;28.73;;;16.50;;
63012;SDS011;62113;45.624;11.700;2023-12-28T10:43:08;30.38;;;16.70;;
63012;SDS011;62113;45.624;11.700;2023-12-28T10:45:37;30.13;;;16.70;;
63012;SDS011;62113;45.624;11.700;2023-12-28T10:50:37;27.60;;;15.85;;
63012;SDS011;62113;45.624;11.700;2023-12-28T10:53:15;30.77;;;17.33;;
63012;SDS011;62113;45.624;11.700;2023-12-28T10:58:43;30.77;;;16.63;;
63012;SDS011;62113;45.624;11.700;2023-12-28T11:01:15;30.48;;;15.65;;
63012;SDS011;62113;45.624;11.700;2023-12-28T11:03:48;26.17;;;15.65;;
63012;SDS011;62113;45.624;11.700;2023-12-28T11:06:22;27.95;;;16.33;;
63012;SDS011;62113;45.624;11.700;2023-12-28T11:08:49;27.77;;;16.35;;
63012;SDS011;62113;45.624;11.700;2023-12-28T11:11:18;26.48;;;16.75;;
63012;SDS011;62113;45.624;11.700;2023-12-28T11:13:46;31.90;;;17.08;;
63012;SDS011;62113;45.624;11.700;2023-12-28T11:16:13;30.05;;;17.88;;
63012;SDS011;62113;45.624;11.700;2023-12-28T11:18:40;25.65;;;16.92;;
63012;SDS011;62113;45.624;11.700;2023-12-28T11:21:06;27.80;;;16.98;;
63012;SDS011;62113;45.624;11.700;2023-12-28T11:23:32;29.23;;;16.50;;
63012;SDS011;62113;45.624;11.700;2023-12-28T11:25:58;29.83;;;17.75;;
63012;SDS011;62113;45.624;11.700;2023-12-28T11:28:24;26.50;;;16.98;;
63012;SDS011;62113;45.624;11.700;2023-12-28T11:30:50;27.57;;;17.10;;
63012;SDS011;62113;45.624;11.700;2023-12-28T11:33:17;26.10;;;17.15;;
63012;SDS011;62113;45.624;11.700;2023-12-28T11:35:44;28.00;;;17.25;;
63012;SDS011;62113;45.624;11.700;2023-12-28T11:38:13;30.17;;;17.20;;
63012;SDS011;62113;45.624;11.700;2023-12-28T11:40:45;32.53;;;18.48;;
63012;SDS011;62113;45.624;11.700;2023-12-28T11:43:18;29.80;;;16.90;;
63012;SDS011;62113;45.624;11.700;2023-12-28T11:45:51;27.42;;;17.55;;
63012;SDS011;62113;45.624;11.700;2023-12-28T11:48:26;26.70;;;16.45;;
63012;SDS011;62113;45.624;11.700;2023-12-28T11:50:59;27.25;;;16.50;;
63012;SDS011;62113;45.624;11.700;2023-12-28T11:53:25;33.67;;;18.33;;
63012;SDS011;62113;45.624;11.700;2023-12-28T11:55:51;25.65;;;17.27;;
63012;SDS011;62113;45.624;11.700;2023-12-28T11:58:18;28.90;;;17.33;;
63012;SDS011;62113;45.624;11.700;2023-12-28T12:00:44;32.92;;;17.23;;
63012;SDS011;62113;45.624;11.700;2023-12-28T12:03:10;31.83;;;17.73;;
63012;SDS011;62113;45.624;11.700;2023-12-28T12:05:36;29.75;;;17.88;;
63012;SDS011;62113;45.624;11.700;2023-12-28T12:08:02;32.65;;;18.05;;
63012;SDS011;62113;45.624;11.700;2023-12-28T12:10:29;29.70;;;18.27;;
63012;SDS011;62113;45.624;11.700;2023-12-28T12:12:54;27.10;;;16.80;;
63012;SDS011;62113;45.624;11.700;2023-12-28T12:15:20;30.30;;;17.90;;
63012;SDS011;62113;45.624;11.700;2023-12-28T12:17:46;35.23;;;17.60;;
63012;SDS011;62113;45.624;11.700;2023-12-28T12:20:14;30.48;;;16.83;;
63012;SDS011;62113;45.624;11.700;2023-12-28T12:22:39;28.60;;;18.23;;
63012;SDS011;62113;45.624;11.700;2023-12-28T12:25:05;26.10;;;17.73;;
63012;SDS011;62113;45.624;11.700;2023-12-28T12:27:32;32.00;;;18.02;;
63012;SDS011;62113;45.624;11.700;2023-12-28T12:29:59;38.25;;;18.38;;
63012;SDS011;62113;45.624;11.700;2023-12-28T12:32:24;27.30;;;17.97;;
63012;SDS011;62113;45.624;11.700;2023-12-28T12:37:17;28.37;;;17.13;;
63012;SDS011;62113;45.624;11.700;2023-12-28T12:39:43;29.92;;;17.05;;
63012;SDS011;62113;45.624;11.700;2023-12-28T12:42:12;35.63;;;19.20;;
63012;SDS011;62113;45.624;11.700;2023-12-28T12:44:38;28.75;;;17.95;;
63012;SDS011;62113;45.624;11.700;2023-12-28T12:47:04;28.85;;;17.75;;
63012;SDS011;62113;45.624;11.700;2023-12-28T12:49:31;29.08;;;18.15;;
63012;SDS011;62113;45.624;11.700;2023-12-28T12:51:56;33.65;;;18.95;;
63012;SDS011;62113;45.624;11.700;2023-12-28T12:54:22;33.63;;;17.73;;
63012;SDS011;62113;45.624;11.700;2023-12-28T12:56:49;32.30;;;19.20;;
63012;SDS011;62113;45.624;11.700;2023-12-28T12:59:16;30.75;;;18.63;;
63012;SDS011;62113;45.624;11.700;2023-12-28T13:01:43;28.92;;;18.17;;
63012;SDS011;62113;45.624;11.700;2023-12-28T13:04:09;29.48;;;18.73;;
63012;SDS011;62113;45.624;11.700;2023-12-28T13:06:36;31.25;;;19.25;;
63012;SDS011;62113;45.624;11.700;2023-12-28T13:09:02;32.03;;;17.73;;
63012;SDS011;62113;45.624;11.700;2023-12-28T13:11:28;30.85;;;17.92;;
63012;SDS011;62113;45.624;11.700;2023-12-28T13:13:53;35.95;;;20.10;;
63012;SDS011;62113;45.624;11.700;2023-12-28T13:16:19;35.90;;;18.50;;
63012;SDS011;62113;45.624;11.700;2023-12-28T13:18:44;30.73;;;17.97;;
63012;SDS011;62113;45.624;11.700;2023-12-28T13:21:10;25.50;;;16.00;;
63012;SDS011;62113;45.624;11.700;2023-12-28T13:23:36;26.53;;;17.87;;
63012;SDS011;62113;45.624;11.700;2023-12-28T13:26:01;27.83;;;17.33;;
63012;SDS011;62113;45.624;11.700;2023-12-28T13:28:27;25.08;;;16.27;;
63012;SDS011;62113;45.624;11.700;2023-12-28T13:30:52;24.10;;;14.43;;
63012;SDS011;62113;45.624;11.700;2023-12-28T13:33:20;24.27;;;14.60;;
63012;SDS011;62113;45.624;11.700;2023-12-28T13:35:47;23.20;;;15.07;;
63012;SDS011;62113;45.624;11.700;2023-12-28T13:38:12;21.57;;;14.17;;
63012;SDS011;62113;45.624;11.700;2023-12-28T13:40:38;23.23;;;14.03;;
63012;SDS011;62113;45.624;11.700;2023-12-28T13:43:03;27.10;;;14.37;;
63012;SDS011;62113;45.624;11.700;2023-12-28T13:45:29;22.60;;;15.33;;
63012;SDS011;62113;45.624;11.700;2023-12-28T13:47:55;21.10;;;13.63;;
63012;SDS011;62113;45.624;11.700;2023-12-28T13:50:20;24.80;;;15.03;;
63012;SDS011;62113;45.624;11.700;2023-12-28T13:52:46;25.47;;;15.60;;
63012;SDS011;62113;45.624;11.700;2023-12-28T13:55:12;30.60;;;15.70;;
63012;SDS011;62113;45.624;11.700;2023-12-28T13:57:38;24.63;;;15.35;;
63012;SDS011;62113;45.624;11.700;2023-12-28T14:00:04;24.83;;;14.68;;
63012;SDS011;62113;45.624;11.700;2023-12-28T14:02:30;34.05;;;17.15;;
63012;SDS011;62113;45.624;11.700;2023-12-28T14:04:56;28.17;;;16.50;;
63012;SDS011;62113;45.624;11.700;2023-12-28T14:07:24;29.52;;;17.05;;
63012;SDS011;62113;45.624;11.700;2023-12-28T14:09:50;28.52;;;16.35;;
63012;SDS011;62113;45.624;11.700;2023-12-28T14:12:16;25.63;;;17.00;;
63012;SDS011;62113;45.624;11.700;2023-12-28T14:14:42;28.90;;;17.13;;
63012;SDS011;62113;45.624;11.700;2023-12-28T14:17:07;24.17;;;16.80;;